sensor_id;sensor_type;location;lat;lon;timestamp;P1;durP1;ratioP1;P2;durP2;ratioP2
18568;SDS011;14780;48.316;-1.050;2024-01-16T00:00:21;2.92;;;1.70;;
18568;SDS011;14780;48.316;-1.050;2024-01-16T00:03:06;3.15;;;1.90;;
18568;SDS011;14780;48.316;-1.050;2024-01-16T00:05:51;2.88;;;1.80;;
18568;SDS011;14780;48.316;-1.050;2024-01-16T00:08:35;3.97;;;1.75;;
18568;SDS011;14780;48.316;-1.050;2024-01-16T00:11:20;2.50;;;1.73;;
18568;SDS011;14780;48.316;-1.050;2024-01-16T00:14:04;2.50;;;1.77;;
18568;SDS011;14780;48.316;-1.050;2024-01-16T00:16:49;2.33;;;1.67;;
18568;SDS011;14780;48.316;-1.050;2024-01-16T00:19:34;2.90;;;1.60;;
18568;SDS011;14780;48.316;-1.050;2024-01-16T00:22:19;1.80;;;1.50;;
18568;SDS011;14780;48.316;-1.050;2024-01-16T00:25:03;2.10;;;1.50;;
18568;SDS011;14780;48.316;-1.050;2024-01-16T00:27:48;2.80;;;1.73;;
18568;SDS011;14780;48.316;-1.050;2024-01-16T00:30:33;2.15;;;1.63;;
18568;SDS011;14780;48.316;-1.050;2024-01-16T00:33:18;2.05;;;1.35;;
18568;SDS011;14780;48.316;-1.050;2024-01-16T00:36:03;1.42;;;1.30;;
18568;SDS011;14780;48.316;-1.050;2024-01-16T00:38:48;1.70;;;1.50;;
18568;SDS011;14780;48.316;-1.050;2024-01-16T00:41:33;2.03;;;1.40;;
18568;SDS011;14780;48.316;-1.050;2024-01-16T00:44:17;2.05;;;1.60;;
18568;SDS011;14780;48.316;-1.050;2024-01-16T00:47:02;2.47;;;1.70;;
18568;SDS011;14780;48.316;-1.050;2024-01-16T00:49:49;1.87;;;1.43;;
18568;SDS011;14780;48.316;-1.050;2024-01-16T00:52:34;2.85;;;1.65;;
18568;SDS011;14780;48.316;-1.050;2024-01-16T00:55:18;2.10;;;1.60;;
18568;SDS011;14780;48.316;-1.050;2024-01-16T00:58:03;2.78;;;1.58;;
18568;SDS011;14780;48.316;-1.050;2024-01-16T01:00:48;1.70;;;1.38;;
18568;SDS011;14780;48.316;-1.050;2024-01-16T01:03:32;1.60;;;1.30;;
18568;SDS011;14780;48.316;-1.050;2024-01-16T01:06:17;3.13;;;1.50;;
18568;SDS011;14780;48.316;-1.050;2024-01-16T01:09:02;1.87;;;1.60;;
18568;SDS011;14780;48.316;-1.050;2024-01-16T01:11:46;3.15;;;1.40;;
18568;SDS011;14780;48.316;-1.050;2024-01-16T01:14:32;1.93;;;1.60;;
18568;SDS011;14780;48.316;-1.050;2024-01-16T01:17:17;2.30;;;1.60;;
18568;SDS011;14780;48.316;-1.050;2024-01-16T01:20:02;3.00;;;1.60;;
18568;SDS011;14780;48.316;-1.050;2024-01-16T01:22:47;2.60;;;1.50;;
18568;SDS011;14780;48.316;-1.050;2024-01-16T01:25:32;2.92;;;1.40;;
18568;SDS011;14780;48.316;-1.050;2024-01-16T01:28:16;1.35;;;1.20;;
18568;SDS011;14780;48.316;-1.050;2024-01-16T01:31:01;2.23;;;1.50;;
18568;SDS011;14780;48.316;-1.050;2024-01-16T01:33:46;1.83;;;1.50;;
18568;SDS011;14780;48.316;-1.050;2024-01-16T01:36:31;1.88;;;1.48;;
18568;SDS011;14780;48.316;-1.050;2024-01-16T01:39:16;2.05;;;1.27;;
18568;SDS011;14780;48.316;-1.050;2024-01-16T01:42:02;2.63;;;1.40;;
18568;SDS011;14780;48.316;-1.050;2024-01-16T01:44:47;1.60;;;1.37;;
18568;SDS011;14780;48.316;-1.050;2024-01-16T01:47:32;1.90;;;1.52;;
18568;SDS011;14780;48.316;-1.050;2024-01-16T01:50:17;1.17;;;1.08;;
18568;SDS011;14780;48.316;-1.050;2024-01-16T01:53:02;1.52;;;1.40;;
18568;SDS011;14780;48.316;-1.050;2024-01-16T01:55:47;1.65;;;1.48;;
18568;SDS011;14780;48.316;-1.050;2024-01-16T01:58:32;1.58;;;1.13;;
18568;SDS011;14780;48.316;-1.050;2024-01-16T02:01:22;1.38;;;1.10;;
18568;SDS011;14780;48.316;-1.050;2024-01-16T02:04:07;1.50;;;1.40;;
18568;SDS011;14780;48.316;-1.050;2024-01-16T02:06:54;1.58;;;1.17;;
18568;SDS011;14780;48.316;-1.050;2024-01-16T02:09:40;2.83;;;1.48;;
18568;SDS011;14780;48.316;-1.050;2024-01-16T02:12:25;1.70;;;1.45;;
18568;SDS011;14780;48.316;-1.050;2024-01-16T02:15:10;2.20;;;1.42;;
18568;SDS011;14780;48.316;-1.050;2024-01-16T02:17:54;1.38;;;1.27;;
18568;SDS011;14780;48.316;-1.050;2024-01-16T02:20:40;2.10;;;1.43;;
18568;SDS011;14780;48.316;-1.050;2024-01-16T02:23:29;1.48;;;1.30;;
18568;SDS011;14780;48.316;-1.050;2024-01-16T02:26:14;2.35;;;1.50;;
18568;SDS011;14780;48.316;-1.050;2024-01-16T02:29:01;2.47;;;1.45;;
18568;SDS011;14780;48.316;-1.050;2024-01-16T02:31:48;1.38;;;1.15;;
18568;SDS011;14780;48.316;-1.050;2024-01-16T02:34:33;2.20;;;1.20;;
18568;SDS011;14780;48.316;-1.050;2024-01-16T02:37:17;2.40;;;1.50;;
18568;SDS011;14780;48.316;-1.050;2024-01-16T02:40:02;1.73;;;1.40;;
18568;SDS011;14780;48.316;-1.050;2024-01-16T02:42:49;1.77;;;1.40;;
18568;SDS011;14780;48.316;-1.050;2024-01-16T02:45:34;1.52;;;1.20;;
18568;SDS011;14780;48.316;-1.050;2024-01-16T02:48:19;2.08;;;1.30;;
18568;SDS011;14780;48.316;-1.050;2024-01-16T02:51:04;1.25;;;1.15;;
18568;SDS011;14780;48.316;-1.050;2024-01-16T02:53:49;1.85;;;1.48;;
18568;SDS011;14780;48.316;-1.050;2024-01-16T02:56:33;2.05;;;1.35;;
18568;SDS011;14780;48.316;-1.050;2024-01-16T02:59:18;1.13;;;1.02;;
18568;SDS011;14780;48.316;-1.050;2024-01-16T03:02:03;2.92;;;1.30;;
18568;SDS011;14780;48.316;-1.050;2024-01-16T03:04:47;1.30;;;1.20;;
18568;SDS011;14780;48.316;-1.050;2024-01-16T03:07:33;1.30;;;1.20;;
18568;SDS011;14780;48.316;-1.050;2024-01-16T03:10:18;1.67;;;1.30;;
18568;SDS011;14780;48.316;-1.050;2024-01-16T03:13:03;1.67;;;1.30;;
18568;SDS011;14780;48.316;-1.050;2024-01-16T03:15:48;1.80;;;1.45;;
18568;SDS011;14780;48.316;-1.050;2024-01-16T03:18:32;1.30;;;1.20;;
18568;SDS011;14780;48.316;-1.050;2024-01-16T03:21:17;1.70;;;1.30;;
18568;SDS011;14780;48.316;-1.050;2024-01-16T03:24:01;1.52;;;1.20;;
18568;SDS011;14780;48.316;-1.050;2024-01-16T03:26:46;1.37;;;1.10;;
18568;SDS011;14780;48.316;-1.050;2024-01-16T03:29:31;1.60;;;1.10;;
18568;SDS011;14780;48.316;-1.050;2024-01-16T03:32:17;1.27;;;1.17;;
18568;SDS011;14780;48.316;-1.050;2024-01-16T03:35:02;1.52;;;1.20;;
18568;SDS011;14780;48.316;-1.050;2024-01-16T03:37:47;1.60;;;1.17;;
18568;SDS011;14780;48.316;-1.050;2024-01-16T03:40:32;2.13;;;1.20;;
18568;SDS011;14780;48.316;-1.050;2024-01-16T03:43:18;1.50;;;1.23;;
18568;SDS011;14780;48.316;-1.050;2024-01-16T03:46:02;3.05;;;1.35;;
18568;SDS011;14780;48.316;-1.050;2024-01-16T03:48:47;1.30;;;1.20;;
18568;SDS011;14780;48.316;-1.050;2024-01-16T03:51:32;1.75;;;1.30;;
18568;SDS011;14780;48.316;-1.050;2024-01-16T03:54:17;1.73;;;1.30;;
18568;SDS011;14780;48.316;-1.050;2024-01-16T03:57:02;1.35;;;1.13;;
18568;SDS011;14780;48.316;-1.050;2024-01-16T03:59:47;1.75;;;1.30;;
18568;SDS011;14780;48.316;-1.050;2024-01-16T04:02:31;1.58;;;1.13;;
18568;SDS011;14780;48.316;-1.050;2024-01-16T04:05:16;1.30;;;1.20;;
18568;SDS011;14780;48.316;-1.050;2024-01-16T04:08:01;1.27;;;1.08;;
18568;SDS011;14780;48.316;-1.050;2024-01-16T04:10:46;3.78;;;1.90;;
18568;SDS011;14780;48.316;-1.050;2024-01-16T04:13:31;1.85;;;1.42;;
18568;SDS011;14780;48.316;-1.050;2024-01-16T04:16:15;1.40;;;1.20;;
18568;SDS011;14780;48.316;-1.050;2024-01-16T04:19:00;1.48;;;1.10;;
18568;SDS011;14780;48.316;-1.050;2024-01-16T04:21:44;1.40;;;1.30;;
18568;SDS011;14780;48.316;-1.050;2024-01-16T04:24:30;1.95;;;1.40;;
18568;SDS011;14780;48.316;-1.050;2024-01-16T04:27:14;1.25;;;1.15;;
18568;SDS011;14780;48.316;-1.050;2024-01-16T04:29:59;1.40;;;1.23;;
18568;SDS011;14780;48.316;-1.050;2024-01-16T04:32:43;1.47;;;1.37;;
18568;SDS011;14780;48.316;-1.050;2024-01-16T04:35:28;1.75;;;1.40;;
18568;SDS011;14780;48.316;-1.050;2024-01-16T04:38:13;1.50;;;1.40;;
18568;SDS011;14780;48.316;-1.050;2024-01-16T04:41:00;1.63;;;1.30;;
18568;SDS011;14780;48.316;-1.050;2024-01-16T04:43:46;1.63;;;1.40;;
18568;SDS011;14780;48.316;-1.050;2024-01-16T04:46:32;1.58;;;1.35;;
18568;SDS011;14780;48.316;-1.050;2024-01-16T04:49:17;1.35;;;1.23;;
18568;SDS011;14780;48.316;-1.050;2024-01-16T04:52:01;1.40;;;1.30;;
18568;SDS011;14780;48.316;-1.050;2024-01-16T04:54:47;1.75;;;1.25;;
18568;SDS011;14780;48.316;-1.050;2024-01-16T04:57:31;1.52;;;1.30;;
18568;SDS011;14780;48.316;-1.050;2024-01-16T05:00:16;2.38;;;1.52;;
18568;SDS011;14780;48.316;-1.050;2024-01-16T05:03:03;1.70;;;1.40;;
18568;SDS011;14780;48.316;-1.050;2024-01-16T05:05:49;2.03;;;1.60;;
18568;SDS011;14780;48.316;-1.050;2024-01-16T05:08:33;1.73;;;1.48;;
18568;SDS011;14780;48.316;-1.050;2024-01-16T05:11:18;1.75;;;1.50;;
18568;SDS011;14780;48.316;-1.050;2024-01-16T05:14:03;1.42;;;1.25;;
18568;SDS011;14780;48.316;-1.050;2024-01-16T05:16:47;2.03;;;1.30;;
18568;SDS011;14780;48.316;-1.050;2024-01-16T05:19:32;1.75;;;1.25;;
18568;SDS011;14780;48.316;-1.050;2024-01-16T05:22:16;2.58;;;1.40;;
18568;SDS011;14780;48.316;-1.050;2024-01-16T05:25:01;1.45;;;1.35;;
18568;SDS011;14780;48.316;-1.050;2024-01-16T05:27:46;1.52;;;1.30;;
18568;SDS011;14780;48.316;-1.050;2024-01-16T05:30:31;2.08;;;1.67;;
18568;SDS011;14780;48.316;-1.050;2024-01-16T05:33:17;2.63;;;1.50;;
18568;SDS011;14780;48.316;-1.050;2024-01-16T05:36:01;2.13;;;1.60;;
18568;SDS011;14780;48.316;-1.050;2024-01-16T05:38:46;2.08;;;1.50;;
18568;SDS011;14780;48.316;-1.050;2024-01-16T05:41:34;1.85;;;1.48;;
18568;SDS011;14780;48.316;-1.050;2024-01-16T05:44:19;2.28;;;1.60;;
18568;SDS011;14780;48.316;-1.050;2024-01-16T05:47:03;2.17;;;1.33;;
18568;SDS011;14780;48.316;-1.050;2024-01-16T05:49:49;1.37;;;1.27;;
18568;SDS011;14780;48.316;-1.050;2024-01-16T05:52:34;2.17;;;1.52;;
18568;SDS011;14780;48.316;-1.050;2024-01-16T05:55:19;1.95;;;1.50;;
18568;SDS011;14780;48.316;-1.050;2024-01-16T05:58:05;1.53;;;1.40;;
18568;SDS011;14780;48.316;-1.050;2024-01-16T06:00:49;1.67;;;1.38;;
18568;SDS011;14780;48.316;-1.050;2024-01-16T06:03:34;2.22;;;1.70;;
18568;SDS011;14780;48.316;-1.050;2024-01-16T06:06:18;1.80;;;1.40;;
18568;SDS011;14780;48.316;-1.050;2024-01-16T06:09:03;1.90;;;1.67;;
18568;SDS011;14780;48.316;-1.050;2024-01-16T06:11:49;2.30;;;1.60;;
18568;SDS011;14780;48.316;-1.050;2024-01-16T06:14:34;2.03;;;1.52;;
18568;SDS011;14780;48.316;-1.050;2024-01-16T06:17:19;2.47;;;1.75;;
18568;SDS011;14780;48.316;-1.050;2024-01-16T06:20:03;2.03;;;1.42;;
18568;SDS011;14780;48.316;-1.050;2024-01-16T06:22:50;2.20;;;1.70;;
18568;SDS011;14780;48.316;-1.050;2024-01-16T06:25:34;3.50;;;1.67;;
18568;SDS011;14780;48.316;-1.050;2024-01-16T06:28:20;3.80;;;1.70;;
18568;SDS011;14780;48.316;-1.050;2024-01-16T06:31:04;2.13;;;1.73;;
18568;SDS011;14780;48.316;-1.050;2024-01-16T06:33:49;2.08;;;1.63;;
18568;SDS011;14780;48.316;-1.050;2024-01-16T06:36:34;2.20;;;1.60;;
18568;SDS011;14780;48.316;-1.050;2024-01-16T06:39:18;1.80;;;1.60;;
18568;SDS011;14780;48.316;-1.050;2024-01-16T06:42:03;1.50;;;1.38;;
18568;SDS011;14780;48.316;-1.050;2024-01-16T06:44:48;2.97;;;1.77;;
18568;SDS011;14780;48.316;-1.050;2024-01-16T06:47:32;2.28;;;1.65;;
18568;SDS011;14780;48.316;-1.050;2024-01-16T06:50:17;2.15;;;1.50;;
18568;SDS011;14780;48.316;-1.050;2024-01-16T06:53:03;2.03;;;1.42;;
18568;SDS011;14780;48.316;-1.050;2024-01-16T06:55:48;1.98;;;1.60;;
18568;SDS011;14780;48.316;-1.050;2024-01-16T06:58:33;1.73;;;1.40;;
18568;SDS011;14780;48.316;-1.050;2024-01-16T07:01:18;1.95;;;1.60;;
18568;SDS011;14780;48.316;-1.050;2024-01-16T07:04:03;2.30;;;1.60;;
18568;SDS011;14780;48.316;-1.050;2024-01-16T07:06:48;1.85;;;1.52;;
18568;SDS011;14780;48.316;-1.050;2024-01-16T07:09:32;2.73;;;1.70;;
18568;SDS011;14780;48.316;-1.050;2024-01-16T07:12:17;2.03;;;1.50;;
18568;SDS011;14780;48.316;-1.050;2024-01-16T07:15:02;1.88;;;1.58;;
18568;SDS011;14780;48.316;-1.050;2024-01-16T07:17:47;1.73;;;1.55;;
18568;SDS011;14780;48.316;-1.050;2024-01-16T07:20:32;2.00;;;1.60;;
18568;SDS011;14780;48.316;-1.050;2024-01-16T07:23:16;2.05;;;1.70;;
18568;SDS011;14780;48.316;-1.050;2024-01-16T07:26:01;1.50;;;1.40;;
18568;SDS011;14780;48.316;-1.050;2024-01-16T07:28:47;1.55;;;1.30;;
18568;SDS011;14780;48.316;-1.050;2024-01-16T07:31:33;2.72;;;1.60;;
18568;SDS011;14780;48.316;-1.050;2024-01-16T07:34:17;1.42;;;1.33;;
18568;SDS011;14780;48.316;-1.050;2024-01-16T07:37:05;2.20;;;1.50;;
18568;SDS011;14780;48.316;-1.050;2024-01-16T07:39:50;3.67;;;1.67;;
18568;SDS011;14780;48.316;-1.050;2024-01-16T07:42:35;1.92;;;1.50;;
18568;SDS011;14780;48.316;-1.050;2024-01-16T07:45:20;1.50;;;1.40;;
18568;SDS011;14780;48.316;-1.050;2024-01-16T07:48:05;2.90;;;1.43;;
18568;SDS011;14780;48.316;-1.050;2024-01-16T07:50:50;1.43;;;1.20;;
18568;SDS011;14780;48.316;-1.050;2024-01-16T07:53:35;2.50;;;1.52;;
18568;SDS011;14780;48.316;-1.050;2024-01-16T07:56:19;2.15;;;1.70;;
18568;SDS011;14780;48.316;-1.050;2024-01-16T07:59:05;2.85;;;1.50;;
18568;SDS011;14780;48.316;-1.050;2024-01-16T08:01:50;3.33;;;2.28;;
18568;SDS011;14780;48.316;-1.050;2024-01-16T08:04:36;2.45;;;1.67;;
18568;SDS011;14780;48.316;-1.050;2024-01-16T08:07:20;2.50;;;1.60;;
18568;SDS011;14780;48.316;-1.050;2024-01-16T08:10:05;2.38;;;1.63;;
18568;SDS011;14780;48.316;-1.050;2024-01-16T08:12:51;2.90;;;1.77;;
18568;SDS011;14780;48.316;-1.050;2024-01-16T08:15:36;2.40;;;1.63;;
18568;SDS011;14780;48.316;-1.050;2024-01-16T08:18:20;2.65;;;1.48;;
18568;SDS011;14780;48.316;-1.050;2024-01-16T08:21:05;2.92;;;1.83;;
18568;SDS011;14780;48.316;-1.050;2024-01-16T08:23:51;1.83;;;1.30;;
18568;SDS011;14780;48.316;-1.050;2024-01-16T08:26:36;3.28;;;1.50;;
18568;SDS011;14780;48.316;-1.050;2024-01-16T08:29:21;3.28;;;1.90;;
18568;SDS011;14780;48.316;-1.050;2024-01-16T08:32:06;3.75;;;1.60;;
18568;SDS011;14780;48.316;-1.050;2024-01-16T08:34:50;4.68;;;1.70;;
18568;SDS011;14780;48.316;-1.050;2024-01-16T08:37:35;2.20;;;1.60;;
18568;SDS011;14780;48.316;-1.050;2024-01-16T08:40:19;4.20;;;1.90;;
18568;SDS011;14780;48.316;-1.050;2024-01-16T08:43:04;2.20;;;1.60;;
18568;SDS011;14780;48.316;-1.050;2024-01-16T08:45:48;2.65;;;1.85;;
18568;SDS011;14780;48.316;-1.050;2024-01-16T08:48:34;4.15;;;2.20;;
18568;SDS011;14780;48.316;-1.050;2024-01-16T08:51:18;2.83;;;1.98;;
18568;SDS011;14780;48.316;-1.050;2024-01-16T08:54:03;6.50;;;2.22;;
18568;SDS011;14780;48.316;-1.050;2024-01-16T08:56:48;3.85;;;2.13;;
18568;SDS011;14780;48.316;-1.050;2024-01-16T08:59:33;4.82;;;2.30;;
18568;SDS011;14780;48.316;-1.050;2024-01-16T09:02:17;3.97;;;2.27;;
18568;SDS011;14780;48.316;-1.050;2024-01-16T09:05:02;4.70;;;2.38;;
18568;SDS011;14780;48.316;-1.050;2024-01-16T09:07:48;3.97;;;2.10;;
18568;SDS011;14780;48.316;-1.050;2024-01-16T09:10:33;3.17;;;2.00;;
18568;SDS011;14780;48.316;-1.050;2024-01-16T09:13:18;4.40;;;2.20;;
18568;SDS011;14780;48.316;-1.050;2024-01-16T09:16:04;3.75;;;2.10;;
18568;SDS011;14780;48.316;-1.050;2024-01-16T09:18:48;4.30;;;2.15;;
18568;SDS011;14780;48.316;-1.050;2024-01-16T09:21:33;3.10;;;2.00;;
18568;SDS011;14780;48.316;-1.050;2024-01-16T09:24:18;3.75;;;2.13;;
18568;SDS011;14780;48.316;-1.050;2024-01-16T09:27:03;3.47;;;2.05;;
18568;SDS011;14780;48.316;-1.050;2024-01-16T09:29:50;3.90;;;2.10;;
18568;SDS011;14780;48.316;-1.050;2024-01-16T09:32:35;3.17;;;1.97;;
18568;SDS011;14780;48.316;-1.050;2024-01-16T09:35:21;3.83;;;2.10;;
18568;SDS011;14780;48.316;-1.050;2024-01-16T09:38:05;4.90;;;1.90;;
18568;SDS011;14780;48.316;-1.050;2024-01-16T09:40:50;3.63;;;2.00;;
18568;SDS011;14780;48.316;-1.050;2024-01-16T09:43:36;3.57;;;2.03;;
18568;SDS011;14780;48.316;-1.050;2024-01-16T09:46:22;2.83;;;1.88;;
18568;SDS011;14780;48.316;-1.050;2024-01-16T09:49:09;2.83;;;1.80;;
18568;SDS011;14780;48.316;-1.050;2024-01-16T09:51:55;2.63;;;1.90;;
18568;SDS011;14780;48.316;-1.050;2024-01-16T09:54:42;3.00;;;1.83;;
18568;SDS011;14780;48.316;-1.050;2024-01-16T09:57:27;3.65;;;1.95;;
18568;SDS011;14780;48.316;-1.050;2024-01-16T10:00:13;3.80;;;2.03;;
18568;SDS011;14780;48.316;-1.050;2024-01-16T10:02:59;2.80;;;2.00;;
18568;SDS011;14780;48.316;-1.050;2024-01-16T10:05:45;2.75;;;2.00;;
18568;SDS011;14780;48.316;-1.050;2024-01-16T10:08:31;3.40;;;2.13;;
18568;SDS011;14780;48.316;-1.050;2024-01-16T10:11:16;4.30;;;1.83;;
18568;SDS011;14780;48.316;-1.050;2024-01-16T10:14:01;3.47;;;1.95;;
18568;SDS011;14780;48.316;-1.050;2024-01-16T10:16:58;5.10;;;2.00;;
18568;SDS011;14780;48.316;-1.050;2024-01-16T10:22:35;3.37;;;2.00;;
18568;SDS011;14780;48.316;-1.050;2024-01-16T10:25:19;4.32;;;1.92;;
18568;SDS011;14780;48.316;-1.050;2024-01-16T10:28:05;4.15;;;2.00;;
18568;SDS011;14780;48.316;-1.050;2024-01-16T10:31:00;6.47;;;2.35;;
18568;SDS011;14780;48.316;-1.050;2024-01-16T10:33:49;4.10;;;2.10;;
18568;SDS011;14780;48.316;-1.050;2024-01-16T10:36:34;4.75;;;2.30;;
18568;SDS011;14780;48.316;-1.050;2024-01-16T10:39:19;3.67;;;2.22;;
18568;SDS011;14780;48.316;-1.050;2024-01-16T10:42:04;3.53;;;2.07;;
18568;SDS011;14780;48.316;-1.050;2024-01-16T10:44:52;4.80;;;2.20;;
18568;SDS011;14780;48.316;-1.050;2024-01-16T10:47:38;3.95;;;2.10;;
18568;SDS011;14780;48.316;-1.050;2024-01-16T10:50:23;3.50;;;2.30;;
18568;SDS011;14780;48.316;-1.050;2024-01-16T10:53:08;3.92;;;2.10;;
18568;SDS011;14780;48.316;-1.050;2024-01-16T10:55:53;2.90;;;1.85;;
18568;SDS011;14780;48.316;-1.050;2024-01-16T10:58:43;3.63;;;2.10;;
18568;SDS011;14780;48.316;-1.050;2024-01-16T11:01:28;3.77;;;1.80;;
18568;SDS011;14780;48.316;-1.050;2024-01-16T11:04:15;3.75;;;2.22;;
18568;SDS011;14780;48.316;-1.050;2024-01-16T11:07:01;3.28;;;1.98;;
18568;SDS011;14780;48.316;-1.050;2024-01-16T11:09:48;4.83;;;2.10;;
18568;SDS011;14780;48.316;-1.050;2024-01-16T11:12:33;4.45;;;2.10;;
18568;SDS011;14780;48.316;-1.050;2024-01-16T11:15:19;2.78;;;1.85;;
18568;SDS011;14780;48.316;-1.050;2024-01-16T11:18:05;3.20;;;1.98;;
18568;SDS011;14780;48.316;-1.050;2024-01-16T11:20:51;3.57;;;2.10;;
18568;SDS011;14780;48.316;-1.050;2024-01-16T11:23:38;2.53;;;1.88;;
18568;SDS011;14780;48.316;-1.050;2024-01-16T11:26:29;4.60;;;2.00;;
18568;SDS011;14780;48.316;-1.050;2024-01-16T11:32:14;3.57;;;2.17;;
18568;SDS011;14780;48.316;-1.050;2024-01-16T11:35:18;3.20;;;2.08;;
18568;SDS011;14780;48.316;-1.050;2024-01-16T11:38:25;3.85;;;2.20;;
18568;SDS011;14780;48.316;-1.050;2024-01-16T11:41:10;3.17;;;2.07;;
18568;SDS011;14780;48.316;-1.050;2024-01-16T11:47:34;2.97;;;2.03;;
18568;SDS011;14780;48.316;-1.050;2024-01-16T11:50:27;3.45;;;2.15;;
18568;SDS011;14780;48.316;-1.050;2024-01-16T11:56:34;4.20;;;2.20;;
18568;SDS011;14780;48.316;-1.050;2024-01-16T11:59:57;3.73;;;2.27;;
18568;SDS011;14780;48.316;-1.050;2024-01-16T12:05:28;4.17;;;2.10;;
18568;SDS011;14780;48.316;-1.050;2024-01-16T12:08:13;4.30;;;2.38;;
18568;SDS011;14780;48.316;-1.050;2024-01-16T12:11:06;3.63;;;2.23;;
18568;SDS011;14780;48.316;-1.050;2024-01-16T12:14:01;4.85;;;2.10;;
18568;SDS011;14780;48.316;-1.050;2024-01-16T12:16:47;3.90;;;2.13;;
18568;SDS011;14780;48.316;-1.050;2024-01-16T12:19:32;4.00;;;2.20;;
18568;SDS011;14780;48.316;-1.050;2024-01-16T12:22:18;2.88;;;1.90;;
18568;SDS011;14780;48.316;-1.050;2024-01-16T12:25:05;6.07;;;2.10;;
18568;SDS011;14780;48.316;-1.050;2024-01-16T12:27:56;4.18;;;2.03;;
18568;SDS011;14780;48.316;-1.050;2024-01-16T12:30:46;2.60;;;1.90;;
18568;SDS011;14780;48.316;-1.050;2024-01-16T12:33:35;4.55;;;2.50;;
18568;SDS011;14780;48.316;-1.050;2024-01-16T12:36:20;4.83;;;2.10;;
18568;SDS011;14780;48.316;-1.050;2024-01-16T12:39:05;3.88;;;2.00;;
18568;SDS011;14780;48.316;-1.050;2024-01-16T12:41:56;3.65;;;1.95;;
18568;SDS011;14780;48.316;-1.050;2024-01-16T12:44:43;4.27;;;2.00;;
18568;SDS011;14780;48.316;-1.050;2024-01-16T12:47:30;2.72;;;1.90;;
18568;SDS011;14780;48.316;-1.050;2024-01-16T12:50:21;4.73;;;2.23;;
18568;SDS011;14780;48.316;-1.050;2024-01-16T12:53:08;3.22;;;1.92;;
18568;SDS011;14780;48.316;-1.050;2024-01-16T12:55:58;3.70;;;2.25;;
18568;SDS011;14780;48.316;-1.050;2024-01-16T12:58:46;4.75;;;2.05;;
18568;SDS011;14780;48.316;-1.050;2024-01-16T13:01:30;5.93;;;2.20;;
18568;SDS011;14780;48.316;-1.050;2024-01-16T13:04:16;3.70;;;2.13;;
18568;SDS011;14780;48.316;-1.050;2024-01-16T13:07:01;3.75;;;2.20;;
18568;SDS011;14780;48.316;-1.050;2024-01-16T13:09:47;3.65;;;2.20;;
18568;SDS011;14780;48.316;-1.050;2024-01-16T13:12:31;5.05;;;2.50;;
18568;SDS011;14780;48.316;-1.050;2024-01-16T13:15:17;4.35;;;2.30;;
18568;SDS011;14780;48.316;-1.050;2024-01-16T13:18:02;4.45;;;2.45;;
18568;SDS011;14780;48.316;-1.050;2024-01-16T13:20:51;7.38;;;2.45;;
18568;SDS011;14780;48.316;-1.050;2024-01-16T13:23:37;5.10;;;2.70;;
18568;SDS011;14780;48.316;-1.050;2024-01-16T13:26:21;5.33;;;2.53;;
18568;SDS011;14780;48.316;-1.050;2024-01-16T13:29:06;5.70;;;2.83;;
18568;SDS011;14780;48.316;-1.050;2024-01-16T13:31:52;5.35;;;2.80;;
18568;SDS011;14780;48.316;-1.050;2024-01-16T13:34:38;5.38;;;2.75;;
18568;SDS011;14780;48.316;-1.050;2024-01-16T13:37:30;6.70;;;2.80;;
18568;SDS011;14780;48.316;-1.050;2024-01-16T13:40:16;6.47;;;2.90;;
18568;SDS011;14780;48.316;-1.050;2024-01-16T13:43:02;3.92;;;2.45;;
18568;SDS011;14780;48.316;-1.050;2024-01-16T13:45:48;5.70;;;2.90;;
18568;SDS011;14780;48.316;-1.050;2024-01-16T13:48:36;5.63;;;2.80;;
18568;SDS011;14780;48.316;-1.050;2024-01-16T13:51:21;5.57;;;2.70;;
18568;SDS011;14780;48.316;-1.050;2024-01-16T13:54:06;5.28;;;2.75;;
18568;SDS011;14780;48.316;-1.050;2024-01-16T13:56:50;5.35;;;2.97;;
18568;SDS011;14780;48.316;-1.050;2024-01-16T13:59:35;5.85;;;2.85;;
18568;SDS011;14780;48.316;-1.050;2024-01-16T14:02:21;4.97;;;2.63;;
18568;SDS011;14780;48.316;-1.050;2024-01-16T14:05:05;4.45;;;2.80;;
18568;SDS011;14780;48.316;-1.050;2024-01-16T14:07:54;5.20;;;2.87;;
18568;SDS011;14780;48.316;-1.050;2024-01-16T14:10:39;5.22;;;2.80;;
18568;SDS011;14780;48.316;-1.050;2024-01-16T14:13:24;6.85;;;3.00;;
18568;SDS011;14780;48.316;-1.050;2024-01-16T14:16:09;6.23;;;3.10;;
18568;SDS011;14780;48.316;-1.050;2024-01-16T14:18:54;5.22;;;2.70;;
18568;SDS011;14780;48.316;-1.050;2024-01-16T14:21:38;4.82;;;2.85;;
18568;SDS011;14780;48.316;-1.050;2024-01-16T14:24:23;6.17;;;3.03;;
18568;SDS011;14780;48.316;-1.050;2024-01-16T14:27:07;5.10;;;2.72;;
18568;SDS011;14780;48.316;-1.050;2024-01-16T14:29:54;4.60;;;2.53;;
18568;SDS011;14780;48.316;-1.050;2024-01-16T14:32:42;6.43;;;3.10;;
18568;SDS011;14780;48.316;-1.050;2024-01-16T14:35:27;6.25;;;2.83;;
18568;SDS011;14780;48.316;-1.050;2024-01-16T14:38:12;5.95;;;2.60;;
18568;SDS011;14780;48.316;-1.050;2024-01-16T14:40:57;5.73;;;2.60;;
18568;SDS011;14780;48.316;-1.050;2024-01-16T14:43:42;5.70;;;2.60;;
18568;SDS011;14780;48.316;-1.050;2024-01-16T14:46:26;5.18;;;2.72;;
18568;SDS011;14780;48.316;-1.050;2024-01-16T14:49:11;4.13;;;2.60;;
18568;SDS011;14780;48.316;-1.050;2024-01-16T14:51:56;4.30;;;2.33;;
18568;SDS011;14780;48.316;-1.050;2024-01-16T14:54:41;6.00;;;2.80;;
18568;SDS011;14780;48.316;-1.050;2024-01-16T14:57:26;5.50;;;2.80;;
18568;SDS011;14780;48.316;-1.050;2024-01-16T15:00:13;6.07;;;2.95;;
18568;SDS011;14780;48.316;-1.050;2024-01-16T15:02:58;4.70;;;2.75;;
18568;SDS011;14780;48.316;-1.050;2024-01-16T15:05:46;7.80;;;3.08;;
18568;SDS011;14780;48.316;-1.050;2024-01-16T15:08:31;4.50;;;3.03;;
18568;SDS011;14780;48.316;-1.050;2024-01-16T15:11:16;5.00;;;2.90;;
18568;SDS011;14780;48.316;-1.050;2024-01-16T15:14:01;5.10;;;3.00;;
18568;SDS011;14780;48.316;-1.050;2024-01-16T15:16:45;6.57;;;3.00;;
18568;SDS011;14780;48.316;-1.050;2024-01-16T15:19:30;5.40;;;3.03;;
18568;SDS011;14780;48.316;-1.050;2024-01-16T15:22:14;6.93;;;3.07;;
18568;SDS011;14780;48.316;-1.050;2024-01-16T15:24:59;6.05;;;3.20;;
18568;SDS011;14780;48.316;-1.050;2024-01-16T15:27:44;5.55;;;2.95;;
18568;SDS011;14780;48.316;-1.050;2024-01-16T15:30:30;5.63;;;2.92;;
18568;SDS011;14780;48.316;-1.050;2024-01-16T15:33:19;5.35;;;3.03;;
18568;SDS011;14780;48.316;-1.050;2024-01-16T15:36:03;6.35;;;2.92;;
18568;SDS011;14780;48.316;-1.050;2024-01-16T15:38:49;3.90;;;2.75;;
18568;SDS011;14780;48.316;-1.050;2024-01-16T15:41:33;5.20;;;2.70;;
18568;SDS011;14780;48.316;-1.050;2024-01-16T15:44:19;3.85;;;2.58;;
18568;SDS011;14780;48.316;-1.050;2024-01-16T15:47:03;4.55;;;2.80;;
18568;SDS011;14780;48.316;-1.050;2024-01-16T15:49:48;4.72;;;2.90;;
18568;SDS011;14780;48.316;-1.050;2024-01-16T15:52:33;5.30;;;2.58;;
18568;SDS011;14780;48.316;-1.050;2024-01-16T15:55:18;5.10;;;2.80;;
18568;SDS011;14780;48.316;-1.050;2024-01-16T15:58:03;3.58;;;2.47;;
18568;SDS011;14780;48.316;-1.050;2024-01-16T16:00:47;3.38;;;2.38;;
18568;SDS011;14780;48.316;-1.050;2024-01-16T16:03:32;3.10;;;2.30;;
18568;SDS011;14780;48.316;-1.050;2024-01-16T16:06:16;3.50;;;2.30;;
18568;SDS011;14780;48.316;-1.050;2024-01-16T16:09:02;3.08;;;2.20;;
18568;SDS011;14780;48.316;-1.050;2024-01-16T16:11:47;3.10;;;2.30;;
18568;SDS011;14780;48.316;-1.050;2024-01-16T16:14:33;3.85;;;2.40;;
18568;SDS011;14780;48.316;-1.050;2024-01-16T16:17:18;2.97;;;2.13;;
18568;SDS011;14780;48.316;-1.050;2024-01-16T16:20:03;3.37;;;2.27;;
18568;SDS011;14780;48.316;-1.050;2024-01-16T16:22:48;4.65;;;2.28;;
18568;SDS011;14780;48.316;-1.050;2024-01-16T16:25:34;3.60;;;2.25;;
18568;SDS011;14780;48.316;-1.050;2024-01-16T16:28:18;3.08;;;2.00;;
18568;SDS011;14780;48.316;-1.050;2024-01-16T16:31:03;3.40;;;2.10;;
18568;SDS011;14780;48.316;-1.050;2024-01-16T16:33:48;3.63;;;2.25;;
18568;SDS011;14780;48.316;-1.050;2024-01-16T16:36:32;3.22;;;2.25;;